Time;durP1;ratioP1;P1;durP2;ratioP2;P2;SDS_P1;SDS_P2;PMS_P1;PMS_P2;Temp;Humidity;BMP_temperature;BMP_pressure;BME280_temperature;BME280_humidity;BME280_pressure;Samples;Min_cycle;Max_cycle;Signal;HPM_P1;HPM_P2
2022/04/18 00:01:46;;;;;;;259.07;87.47;;;;;;;;;;5011236;28;20440;-64
2022/04/18 00:04:12;;;;;;;256.60;82.47;;;;;;;;;;5011477;28;20415;-64
2022/04/18 00:06:38;;;;;;;256.27;83.07;;;;;;;;;;5011396;28;20419;-63
2022/04/18 00:09:04;;;;;;;257.57;83.73;;;;;;;;;;5011404;28;20431;-63
2022/04/18 00:11:30;;;;;;;244.20;81.07;;;;;;;;;;5011854;28;20463;-63
2022/04/18 00:13:56;;;;;;;244.23;82.23;;;;;;;;;;5011451;28;20247;-64
2022/04/18 00:16:22;;;;;;;240.10;80.55;;;;;;;;;;5011361;28;20404;-63
2022/04/18 00:18:48;;;;;;;240.60;82.70;;;;;;;;;;5012557;28;20219;-64
2022/04/18 00:21:14;;;;;;;246.03;86.63;;;;;;;;;;5014525;28;20489;-65
2022/04/18 00:23:40;;;;;;;238.57;81.40;;;;;;;;;;5014995;28;20396;-63
2022/04/18 00:26:06;;;;;;;242.83;84.03;;;;;;;;;;5014684;28;20185;-63
2022/04/18 00:28:32;;;;;;;242.38;82.00;;;;;;;;;;5014662;28;20918;-63
2022/04/18 00:30:58;;;;;;;245.20;84.37;;;;;;;;;;5014385;28;20180;-63
2022/04/18 00:33:25;;;;;;;253.30;82.97;;;;;;;;;;5014412;28;20932;-64
2022/04/18 00:35:51;;;;;;;245.55;80.97;;;;;;;;;;5014816;28;20552;-63
2022/04/18 00:38:18;;;;;;;226.45;81.13;;;;;;;;;;5014523;28;20192;-63
2022/04/18 00:40:44;;;;;;;255.73;83.18;;;;;;;;;;5014270;28;20176;-63
2022/04/18 00:43:10;;;;;;;255.23;84.18;;;;;;;;;;5014637;28;20233;-63
2022/04/18 00:45:36;;;;;;;261.02;86.85;;;;;;;;;;5014440;28;20528;-63
2022/04/18 00:48:02;;;;;;;248.47;80.97;;;;;;;;;;5014438;28;20226;-63
2022/04/18 00:50:30;;;;;;;252.57;80.72;;;;;;;;;;5014242;28;20415;-63
2022/04/18 00:52:56;;;;;;;252.65;82.97;;;;;;;;;;5014253;28;20214;-63
2022/04/18 00:55:24;;;;;;;257.67;84.60;;;;;;;;;;5014252;28;20541;-63
2022/04/18 00:57:50;;;;;;;250.25;81.97;;;;;;;;;;5014238;28;21111;-63
2022/04/18 01:00:16;;;;;;;253.05;85.50;;;;;;;;;;5014157;28;20272;-63
2022/04/18 01:02:42;;;;;;;245.07;79.78;;;;;;;;;;5014045;28;20207;-63
2022/04/18 01:05:08;;;;;;;252.37;82.30;;;;;;;;;;5014334;28;20601;-63
2022/04/18 01:07:35;;;;;;;248.07;83.22;;;;;;;;;;5014044;28;20474;-63
2022/04/18 01:10:01;;;;;;;245.27;82.53;;;;;;;;;;5013954;28;20187;-63
2022/04/18 01:12:27;;;;;;;252.82;84.63;;;;;;;;;;5013588;28;20579;-63
2022/04/18 01:14:53;;;;;;;247.70;78.17;;;;;;;;;;5014334;28;20173;-63
2022/04/18 01:17:19;;;;;;;253.43;81.17;;;;;;;;;;5013733;28;21001;-63
2022/04/18 01:19:46;;;;;;;257.92;81.20;;;;;;;;;;5013898;28;20464;-63
2022/04/18 01:22:15;;;;;;;257.50;82.68;;;;;;;;;;5013567;28;20213;-64
2022/04/18 01:30:12;;;;;;;247.38;81.53;;;;;;;;;;5013364;28;20213;-64
2022/04/18 01:32:38;;;;;;;244.75;77.72;;;;;;;;;;5012887;28;20701;-63
2022/04/18 01:35:04;;;;;;;251.40;81.90;;;;;;;;;;5013638;28;20180;-63
2022/04/18 01:37:30;;;;;;;249.40;78.45;;;;;;;;;;5013585;28;20926;-64
2022/04/18 01:39:56;;;;;;;246.40;74.50;;;;;;;;;;5013566;28;20195;-63
2022/04/18 01:42:22;;;;;;;259.05;83.28;;;;;;;;;;5013006;28;20415;-64
2022/04/18 01:44:48;;;;;;;250.95;78.00;;;;;;;;;;5012914;28;20538;-64
2022/04/18 01:47:15;;;;;;;248.30;78.15;;;;;;;;;;5013251;28;20201;-63
2022/04/18 01:49:41;;;;;;;242.10;74.70;;;;;;;;;;5013057;28;20608;-65
2022/04/18 01:52:07;;;;;;;247.70;81.15;;;;;;;;;;5012734;28;20243;-64
2022/04/18 01:54:33;;;;;;;238.82;75.75;;;;;;;;;;5013126;28;20574;-64
2022/04/18 01:56:59;;;;;;;247.73;77.47;;;;;;;;;;4995467;28;20231;-65
2022/04/18 01:59:25;;;;;;;247.57;72.73;;;;;;;;;;5013182;28;20176;-65
2022/04/18 02:01:51;;;;;;;246.10;74.07;;;;;;;;;;5012949;28;20417;-64
2022/04/18 02:04:16;;;;;;;248.63;75.00;;;;;;;;;;5013152;28;20456;-64
2022/04/18 02:06:42;;;;;;;249.70;78.50;;;;;;;;;;5012903;28;20414;-64
2022/04/18 02:09:08;;;;;;;242.23;75.70;;;;;;;;;;5012665;28;20414;-64
2022/04/18 02:11:34;;;;;;;247.75;80.88;;;;;;;;;;5012664;28;20458;-64
2022/04/18 02:14:00;;;;;;;238.43;71.37;;;;;;;;;;5013011;28;20670;-64
2022/04/18 02:16:28;;;;;;;245.20;75.20;;;;;;;;;;5012793;28;20403;-64
2022/04/18 02:18:54;;;;;;;245.35;73.65;;;;;;;;;;5011883;28;20435;-64
2022/04/18 02:21:21;;;;;;;247.32;78.15;;;;;;;;;;5011643;28;20207;-64
2022/04/18 02:23:46;;;;;;;249.63;77.88;;;;;;;;;;5011941;28;20274;-64
2022/04/18 02:26:12;;;;;;;243.30;71.90;;;;;;;;;;5011962;28;20659;-64
2022/04/18 02:28:40;;;;;;;249.17;76.67;;;;;;;;;;5011843;28;20445;-64
2022/04/18 02:31:07;;;;;;;241.82;72.85;;;;;;;;;;5011596;28;20406;-64
2022/04/18 02:33:33;;;;;;;218.30;73.78;;;;;;;;;;5011659;28;20215;-64
2022/04/18 02:36:01;;;;;;;229.27;76.10;;;;;;;;;;5011738;28;20189;-64
2022/04/18 02:38:27;;;;;;;231.95;78.32;;;;;;;;;;5011708;28;20677;-64
2022/04/18 02:40:53;;;;;;;238.30;74.85;;;;;;;;;;5011392;28;20179;-64
2022/04/18 02:43:19;;;;;;;239.40;75.88;;;;;;;;;;5011410;28;20178;-64
2022/04/18 02:45:45;;;;;;;236.67;75.20;;;;;;;;;;5011557;28;20231;-63
2022/04/18 02:48:10;;;;;;;228.93;71.57;;;;;;;;;;5011668;28;20511;-64
2022/04/18 02:50:36;;;;;;;229.93;72.10;;;;;;;;;;5011297;28;20421;-65
2022/04/18 02:53:02;;;;;;;226.87;70.97;;;;;;;;;;5011527;28;20459;-64
2022/04/18 02:55:28;;;;;;;224.30;70.17;;;;;;;;;;5011515;28;20417;-63
2022/04/18 02:57:54;;;;;;;208.90;73.43;;;;;;;;;;5011243;28;20439;-64
2022/04/18 03:00:20;;;;;;;215.17;72.70;;;;;;;;;;5011236;28;20411;-63
2022/04/18 03:02:46;;;;;;;216.07;70.07;;;;;;;;;;5011328;28;20512;-64
2022/04/18 03:05:12;;;;;;;228.77;76.70;;;;;;;;;;5011312;28;20415;-63
2022/04/18 03:07:39;;;;;;;218.80;70.65;;;;;;;;;;5011284;28;20627;-63
2022/04/18 03:10:05;;;;;;;218.50;70.25;;;;;;;;;;5011033;28;20210;-63
2022/04/18 03:12:31;;;;;;;215.98;68.93;;;;;;;;;;5011214;28;20723;-63
2022/04/18 03:14:57;;;;;;;214.27;70.47;;;;;;;;;;5011348;28;20171;-64
2022/04/18 03:17:24;;;;;;;213.73;68.70;;;;;;;;;;5007599;28;87136;-63
2022/04/18 03:19:50;;;;;;;213.65;68.22;;;;;;;;;;5011141;28;20407;-63
2022/04/18 03:22:16;;;;;;;222.55;72.47;;;;;;;;;;5012004;28;20262;-63
2022/04/18 03:24:42;;;;;;;220.15;70.40;;;;;;;;;;5011901;28;20167;-65
2022/04/18 03:27:08;;;;;;;217.55;66.40;;;;;;;;;;5011800;28;20207;-64
2022/04/18 03:29:35;;;;;;;231.95;71.97;;;;;;;;;;5011876;28;20187;-63
2022/04/18 03:32:01;;;;;;;228.60;70.63;;;;;;;;;;5011608;28;20279;-63
2022/04/18 03:34:27;;;;;;;217.07;66.63;;;;;;;;;;5011627;28;20211;-63
2022/04/18 03:39:50;;;;;;;220.18;73.43;;;;;;;;;;5012051;28;20781;-63
2022/04/18 03:42:16;;;;;;;216.20;71.18;;;;;;;;;;5011543;28;20173;-64
2022/04/18 03:44:43;;;;;;;214.27;70.57;;;;;;;;;;5011610;28;20686;-64
2022/04/18 03:47:09;;;;;;;216.75;70.43;;;;;;;;;;5011785;28;20430;-64
2022/04/18 03:49:35;;;;;;;214.23;69.32;;;;;;;;;;5011245;28;20236;-64
2022/04/18 03:52:01;;;;;;;219.60;73.70;;;;;;;;;;5011413;28;20197;-64
2022/04/18 03:54:27;;;;;;;215.50;71.00;;;;;;;;;;5013582;28;20401;-64
2022/04/18 03:56:53;;;;;;;220.93;70.20;;;;;;;;;;5015384;28;20932;-64
2022/04/18 03:59:19;;;;;;;212.47;67.70;;;;;;;;;;5014997;28;20464;-64
2022/04/18 04:01:45;;;;;;;210.07;69.07;;;;;;;;;;5014916;28;20418;-63
2022/04/18 04:04:10;;;;;;;202.30;67.97;;;;;;;;;;5015419;28;20413;-63
2022/04/18 04:06:36;;;;;;;201.83;66.53;;;;;;;;;;5015295;28;20507;-63
2022/04/18 04:09:02;;;;;;;210.17;69.47;;;;;;;;;;5014338;28;20424;-63
2022/04/18 04:11:29;;;;;;;208.43;66.07;;;;;;;;;;5014873;28;20410;-63
2022/04/18 04:13:55;;;;;;;216.35;68.78;;;;;;;;;;5015129;28;20441;-64
2022/04/18 04:16:21;;;;;;;227.13;74.93;;;;;;;;;;5015129;28;20206;-64
2022/04/18 04:18:49;;;;;;;216.45;66.93;;;;;;;;;;5014964;28;20452;-64
2022/04/18 04:21:15;;;;;;;210.80;65.88;;;;;;;;;;5014891;28;20194;-64
2022/04/18 04:23:41;;;;;;;222.02;67.93;;;;;;;;;;5014996;28;20645;-64
2022/04/18 04:26:10;;;;;;;219.32;67.10;;;;;;;;;;5015049;28;20187;-64
2022/04/18 04:28:36;;;;;;;216.45;67.47;;;;;;;;;;5014669;28;20198;-64
2022/04/18 04:31:05;;;;;;;230.67;72.77;;;;;;;;;;5014703;28;20165;-64
2022/04/18 04:33:32;;;;;;;245.40;72.85;;;;;;;;;;5014684;28;20974;-64
2022/04/18 04:35:58;;;;;;;237.55;69.57;;;;;;;;;;5014892;28;20174;-64
2022/04/18 04:38:24;;;;;;;214.02;67.78;;;;;;;;;;5014761;28;20194;-64
2022/04/18 04:40:50;;;;;;;224.82;75.35;;;;;;;;;;5014142;28;20175;-64
2022/04/18 04:43:16;;;;;;;231.20;68.23;;;;;;;;;;5014498;28;20689;-63
2022/04/18 04:45:42;;;;;;;237.23;68.97;;;;;;;;;;5014627;28;20416;-64
2022/04/18 04:48:08;;;;;;;188.33;65.77;;;;;;;;;;5014619;28;20209;-63
2022/04/18 04:50:34;;;;;;;197.87;65.80;;;;;;;;;;5014284;28;20514;-64
2022/04/18 04:53:00;;;;;;;198.23;65.78;;;;;;;;;;5014272;28;20461;-64
2022/04/18 04:55:27;;;;;;;240.40;73.63;;;;;;;;;;5014357;28;20181;-64
2022/04/18 04:57:53;;;;;;;220.57;66.32;;;;;;;;;;5014161;28;20198;-64
2022/04/18 05:00:19;;;;;;;230.98;74.20;;;;;;;;;;5014151;28;20178;-64
2022/04/18 05:02:45;;;;;;;227.57;68.82;;;;;;;;;;5014367;28;20175;-64
2022/04/18 05:05:12;;;;;;;241.43;75.78;;;;;;;;;;5014281;28;20186;-64
2022/04/18 05:07:38;;;;;;;221.50;67.85;;;;;;;;;;5014189;28;20274;-65
2022/04/18 05:10:04;;;;;;;227.33;71.97;;;;;;;;;;5014135;28;20229;-64
2022/04/18 05:12:32;;;;;;;201.10;65.35;;;;;;;;;;5013834;28;20445;-64
2022/04/18 05:15:02;;;;;;;207.95;66.40;;;;;;;;;;5014051;28;20175;-64
2022/04/18 05:17:27;;;;;;;199.90;63.83;;;;;;;;;;5013870;28;20218;-64
2022/04/18 05:19:53;;;;;;;204.93;65.90;;;;;;;;;;5013773;28;20175;-64
2022/04/18 05:22:19;;;;;;;191.10;66.50;;;;;;;;;;5013866;28;20497;-65
2022/04/18 05:24:45;;;;;;;193.17;65.30;;;;;;;;;;5013775;28;20440;-64
2022/04/18 05:27:15;;;;;;;196.43;65.10;;;;;;;;;;5013741;28;20530;-64
2022/04/18 05:29:41;;;;;;;207.40;68.90;;;;;;;;;;5013826;28;20846;-64
2022/04/18 05:32:07;;;;;;;212.30;69.78;;;;;;;;;;5013455;28;20673;-64
2022/04/18 05:34:33;;;;;;;204.05;66.65;;;;;;;;;;5013345;28;20546;-64
2022/04/18 05:36:59;;;;;;;203.40;68.33;;;;;;;;;;5012627;28;20210;-64
2022/04/18 05:39:26;;;;;;;210.37;69.17;;;;;;;;;;5007667;28;20868;-64
2022/04/18 05:41:51;;;;;;;209.52;68.43;;;;;;;;;;5012999;28;20935;-64
2022/04/18 05:44:17;;;;;;;210.10;68.70;;;;;;;;;;5013419;28;20182;-64
2022/04/18 05:46:43;;;;;;;207.20;66.10;;;;;;;;;;5028528;28;20518;-64
2022/04/18 05:49:09;;;;;;;212.67;72.10;;;;;;;;;;5031999;28;20461;-64
2022/04/18 05:51:37;;;;;;;202.87;68.80;;;;;;;;;;5031501;28;20416;-65
2022/04/18 05:54:03;;;;;;;205.70;67.88;;;;;;;;;;5032973;28;20420;-64
2022/04/18 05:56:32;;;;;;;207.65;67.47;;;;;;;;;;5032991;28;20181;-64
2022/04/18 05:58:58;;;;;;;210.07;66.22;;;;;;;;;;5032766;28;20696;-64
2022/04/18 06:01:24;;;;;;;207.63;69.32;;;;;;;;;;5032417;28;20262;-64
2022/04/18 06:03:50;;;;;;;201.07;67.13;;;;;;;;;;5032873;28;20610;-64
2022/04/18 06:06:16;;;;;;;206.17;68.67;;;;;;;;;;5032839;28;20179;-64
2022/04/18 06:08:42;;;;;;;193.25;65.28;;;;;;;;;;5032672;28;20813;-64
2022/04/18 06:11:08;;;;;;;215.05;68.28;;;;;;;;;;5032526;28;20178;-64
2022/04/18 06:13:34;;;;;;;206.57;67.00;;;;;;;;;;5032741;28;20569;-63
2022/04/18 06:16:00;;;;;;;215.70;70.15;;;;;;;;;;5032636;28;20422;-63
2022/04/18 06:18:27;;;;;;;249.00;89.20;;;;;;;;;;5048547;22;20202;-62
2022/04/18 06:20:53;;;;;;;231.95;71.07;;;;;;;;;;5051446;28;20481;-61
2022/04/18 06:23:19;;;;;;;233.00;74.70;;;;;;;;;;5049525;28;20720;-63
2022/04/18 06:25:45;;;;;;;235.75;70.15;;;;;;;;;;5050397;28;20444;-62
2022/04/18 06:28:14;;;;;;;224.55;69.10;;;;;;;;;;5052051;28;20258;-62
2022/04/18 06:30:40;;;;;;;235.20;73.82;;;;;;;;;;5049198;28;20207;-62
2022/04/18 06:33:09;;;;;;;232.30;75.17;;;;;;;;;;5052244;28;20198;-62
2022/04/18 06:35:36;;;;;;;236.95;73.93;;;;;;;;;;5052197;28;20502;-62
2022/04/18 06:38:02;;;;;;;248.00;72.20;;;;;;;;;;5052101;28;20177;-63
2022/04/18 06:40:28;;;;;;;244.27;77.03;;;;;;;;;;5051084;28;20679;-62
2022/04/18 06:42:54;;;;;;;254.32;77.53;;;;;;;;;;5051928;28;20405;-61
2022/04/18 06:45:20;;;;;;;263.50;82.17;;;;;;;;;;5051875;28;20701;-61
2022/04/18 06:47:45;;;;;;;258.93;81.97;;;;;;;;;;5051572;28;20402;-62
2022/04/18 06:50:12;;;;;;;245.63;79.77;;;;;;;;;;5051645;28;20801;-62
2022/04/18 06:52:39;;;;;;;254.85;81.43;;;;;;;;;;5051286;28;20449;-63
2022/04/18 06:55:05;;;;;;;252.35;79.60;;;;;;;;;;5051589;28;20169;-62
2022/04/18 06:57:31;;;;;;;256.95;82.18;;;;;;;;;;5050278;28;20179;-62
2022/04/18 06:59:57;;;;;;;278.50;87.23;;;;;;;;;;5051281;28;20277;-63
2022/04/18 07:02:23;;;;;;;276.10;88.00;;;;;;;;;;5050144;28;20891;-63
2022/04/18 07:04:50;;;;;;;265.80;89.53;;;;;;;;;;5049277;28;20429;-60
2022/04/18 07:07:15;;;;;;;276.08;91.28;;;;;;;;;;5046758;28;20508;-63
2022/04/18 07:09:42;;;;;;;271.80;86.80;;;;;;;;;;5049937;28;20290;-61
2022/04/18 07:12:08;;;;;;;248.50;88.45;;;;;;;;;;5049837;28;20478;-63
2022/04/18 07:14:36;;;;;;;242.65;87.60;;;;;;;;;;5050146;28;20213;-62
2022/04/18 07:17:02;;;;;;;238.55;88.95;;;;;;;;;;5050094;28;20278;-62
2022/04/18 07:19:28;;;;;;;238.25;88.53;;;;;;;;;;5047321;28;20597;-62
2022/04/18 07:21:55;;;;;;;255.25;94.57;;;;;;;;;;5050002;28;20186;-63
2022/04/18 07:24:23;;;;;;;265.23;93.28;;;;;;;;;;5050128;28;20170;-62
2022/04/18 07:26:49;;;;;;;283.77;100.28;;;;;;;;;;5030100;28;20188;-62
2022/04/18 07:29:15;;;;;;;282.90;102.77;;;;;;;;;;5048864;28;20205;-63
2022/04/18 07:31:41;;;;;;;286.67;100.15;;;;;;;;;;5049671;28;20449;-62
2022/04/18 07:34:07;;;;;;;281.07;101.97;;;;;;;;;;5049463;28;20180;-62
2022/04/18 07:36:33;;;;;;;243.25;98.90;;;;;;;;;;5049413;28;20422;-62
2022/04/18 07:38:59;;;;;;;256.10;102.70;;;;;;;;;;5050917;28;20199;-60
2022/04/18 07:41:27;;;;;;;256.83;104.05;;;;;;;;;;5050788;28;20179;-64
2022/04/18 07:43:54;;;;;;;284.52;110.45;;;;;;;;;;5050975;28;20169;-61
2022/04/18 07:46:20;;;;;;;304.90;114.32;;;;;;;;;;5051060;28;20168;-62
2022/04/18 07:48:47;;;;;;;303.38;119.13;;;;;;;;;;5050757;28;20191;-62
2022/04/18 07:51:32;;;;;;;305.52;115.82;;;;;;;;;;5050071;28;20241;-61
2022/04/18 07:53:58;;;;;;;326.98;121.78;;;;;;;;;;5051074;28;20640;-62
2022/04/18 07:56:25;;;;;;;328.75;127.40;;;;;;;;;;5051155;28;20222;-62
2022/04/18 07:58:51;;;;;;;327.40;128.38;;;;;;;;;;5051019;28;20283;-62
2022/04/18 08:01:18;;;;;;;348.00;137.25;;;;;;;;;;5051068;28;20243;-62
2022/04/18 08:03:44;;;;;;;330.88;134.85;;;;;;;;;;5051074;28;20188;-62
2022/04/18 08:06:10;;;;;;;332.67;139.67;;;;;;;;;;5051089;28;20548;-62
2022/04/18 08:08:36;;;;;;;339.77;145.67;;;;;;;;;;5050799;28;20449;-62
2022/04/18 08:11:02;;;;;;;372.43;169.57;;;;;;;;;;5050760;28;20403;-62
2022/04/18 08:13:28;;;;;;;391.95;207.88;;;;;;;;;;5050903;28;20847;-63
2022/04/18 08:15:54;;;;;;;410.97;246.93;;;;;;;;;;5051038;28;20222;-63
2022/04/18 08:18:20;;;;;;;456.35;323.75;;;;;;;;;;5050729;28;20398;-63
2022/04/18 08:20:46;;;;;;;476.50;397.23;;;;;;;;;;5050742;28;20176;-63
2022/04/18 08:23:12;;;;;;;486.03;433.20;;;;;;;;;;5050712;28;20448;-63
2022/04/18 08:25:38;;;;;;;592.10;535.50;;;;;;;;;;5050791;28;20797;-63
2022/04/18 08:28:04;;;;;;;585.97;530.10;;;;;;;;;;5050886;28;20847;-63
2022/04/18 08:30:30;;;;;;;638.23;580.63;;;;;;;;;;5050550;28;20418;-63
2022/04/18 08:32:56;;;;;;;700.53;641.17;;;;;;;;;;5050768;28;20463;-63
2022/04/18 08:35:22;;;;;;;750.10;689.17;;;;;;;;;;5050866;28;20914;-61
2022/04/18 08:37:48;;;;;;;783.57;721.97;;;;;;;;;;5050568;28;20407;-62
2022/04/18 08:40:14;;;;;;;789.37;727.77;;;;;;;;;;5051379;28;20898;-62
2022/04/18 08:42:41;;;;;;;762.83;702.33;;;;;;;;;;5054304;28;20406;-61
2022/04/18 08:45:08;;;;;;;816.10;754.20;;;;;;;;;;5054292;28;20967;-62
2022/04/18 08:53:04;;;;;;;899.93;835.60;;;;;;;;;;5054218;28;20517;-62
2022/04/18 08:55:31;;;;;;;892.93;828.70;;;;;;;;;;5053923;28;20429;-63
2022/04/18 08:57:57;;;;;;;921.40;856.10;;;;;;;;;;5054058;28;20911;-62
2022/04/18 09:00:23;;;;;;;927.80;862.30;;;;;;;;;;5053626;28;20569;-62
2022/04/18 09:02:49;;;;;;;923.70;858.37;;;;;;;;;;5053744;28;20429;-62
2022/04/18 09:05:15;;;;;;;916.83;851.80;;;;;;;;;;5053777;28;20415;-62
2022/04/18 09:07:45;;;;;;;936.93;871.17;;;;;;;;;;5054058;28;20414;-62
2022/04/18 09:10:11;;;;;;;939.17;872.77;;;;;;;;;;5053511;28;20433;-61
2022/04/18 09:12:43;;;;;;;952.03;885.93;;;;;;;;;;5053526;28;20485;-62
2022/04/18 09:15:09;;;;;;;960.80;894.30;;;;;;;;;;5053633;28;20425;-62
2022/04/18 09:17:36;;;;;;;986.40;919.07;;;;;;;;;;5053736;28;20420;-62
2022/04/18 09:20:06;;;;;;;975.83;909.07;;;;;;;;;;5053204;28;20976;-62
2022/04/18 09:22:40;;;;;;;971.20;904.57;;;;;;;;;;5053608;28;20444;-61
2022/04/18 09:25:12;;;;;;;971.27;904.60;;;;;;;;;;5053476;28;20783;-63
2022/04/18 09:27:38;;;;;;;963.20;896.87;;;;;;;;;;5053533;28;20463;-61
2022/04/18 09:30:09;;;;;;;978.47;911.50;;;;;;;;;;5053158;28;20536;-62
2022/04/18 09:32:35;;;;;;;973.57;907.03;;;;;;;;;;5053205;28;20453;-62
2022/04/18 09:35:03;;;;;;;978.90;912.43;;;;;;;;;;5053192;28;20424;-62
2022/04/18 09:37:29;;;;;;;981.73;915.03;;;;;;;;;;5053172;28;20438;-61
2022/04/18 09:39:56;;;;;;;974.70;908.03;;;;;;;;;;5052486;28;20445;-62
2022/04/18 09:42:23;;;;;;;969.10;902.60;;;;;;;;;;5052619;28;20409;-62
2022/04/18 09:44:49;;;;;;;971.03;904.47;;;;;;;;;;5053091;28;20425;-62
2022/04/18 09:47:16;;;;;;;956.03;889.60;;;;;;;;;;5053101;28;20411;-62
2022/04/18 09:49:42;;;;;;;936.37;870.67;;;;;;;;;;5052781;28;20467;-62
2022/04/18 09:52:11;;;;;;;946.53;880.67;;;;;;;;;;5051715;28;20478;-62
2022/04/18 09:54:41;;;;;;;926.10;860.70;;;;;;;;;;5052872;28;20507;-61
2022/04/18 09:57:07;;;;;;;888.13;823.67;;;;;;;;;;5052651;28;20412;-62
2022/04/18 09:59:33;;;;;;;893.97;829.50;;;;;;;;;;5052731;28;20430;-62
2022/04/18 10:02:00;;;;;;;906.10;841.13;;;;;;;;;;5052567;28;20411;-62
2022/04/18 10:04:26;;;;;;;927.30;861.70;;;;;;;;;;5052586;28;20494;-62
2022/04/18 10:06:56;;;;;;;911.67;846.73;;;;;;;;;;5052672;28;20970;-62
2022/04/18 10:09:24;;;;;;;925.63;860.07;;;;;;;;;;5052205;28;20854;-62
2022/04/18 10:11:50;;;;;;;919.73;854.57;;;;;;;;;;5052250;28;20458;-62
2022/04/18 10:14:16;;;;;;;943.83;877.97;;;;;;;;;;5052523;28;20440;-62
2022/04/18 10:16:42;;;;;;;937.20;871.37;;;;;;;;;;5052445;28;20821;-62
2022/04/18 10:19:27;;;;;;;918.90;853.93;;;;;;;;;;5052224;28;20450;-63
2022/04/18 10:21:58;;;;;;;894.00;829.47;;;;;;;;;;5052096;28;20402;-62
2022/04/18 10:24:42;;;;;;;900.40;835.77;;;;;;;;;;5052871;28;20410;-62
2022/04/18 10:27:17;;;;;;;909.70;844.80;;;;;;;;;;5052271;28;20477;-62
2022/04/18 10:29:45;;;;;;;896.57;831.80;;;;;;;;;;5052105;28;20415;-62
2022/04/18 10:32:13;;;;;;;869.83;805.93;;;;;;;;;;5051778;28;20499;-62
2022/04/18 10:34:39;;;;;;;856.50;793.00;;;;;;;;;;5052152;28;20403;-62
2022/04/18 10:37:05;;;;;;;840.77;777.40;;;;;;;;;;5049915;28;20418;-62
2022/04/18 10:39:35;;;;;;;857.00;793.40;;;;;;;;;;5051384;28;20430;-62
2022/04/18 10:42:22;;;;;;;871.77;807.80;;;;;;;;;;5051821;28;20411;-62
2022/04/18 10:45:02;;;;;;;857.60;793.90;;;;;;;;;;5051507;28;20804;-62
2022/04/18 10:47:48;;;;;;;820.60;757.53;;;;;;;;;;5051875;28;20406;-62
2022/04/18 10:50:18;;;;;;;856.43;792.63;;;;;;;;;;5050980;28;20434;-62
2022/04/18 10:53:04;;;;;;;836.50;773.43;;;;;;;;;;5051832;28;21033;-62
2022/04/18 10:55:30;;;;;;;843.60;780.30;;;;;;;;;;5051808;28;20403;-62
2022/04/18 10:58:15;;;;;;;854.20;790.70;;;;;;;;;;5051708;28;20453;-62
2022/04/18 11:00:47;;;;;;;847.47;784.30;;;;;;;;;;5051750;28;20428;-62
2022/04/18 11:03:13;;;;;;;854.63;791.33;;;;;;;;;;5051091;28;20425;-62
2022/04/18 11:05:39;;;;;;;837.67;774.60;;;;;;;;;;5051577;28;20411;-62
2022/04/18 11:08:22;;;;;;;864.47;800.70;;;;;;;;;;5051525;28;20774;-63
2022/04/18 11:10:49;;;;;;;866.40;802.57;;;;;;;;;;5051327;28;20406;-62
2022/04/18 11:13:15;;;;;;;869.40;805.73;;;;;;;;;;5051037;28;20454;-62
2022/04/18 11:15:40;;;;;;;874.97;810.97;;;;;;;;;;5051547;28;20447;-62
2022/04/18 11:18:09;;;;;;;844.47;781.10;;;;;;;;;;5051023;28;20447;-62
2022/04/18 11:20:36;;;;;;;855.20;791.70;;;;;;;;;;5051094;28;20418;-62
2022/04/18 11:23:17;;;;;;;839.33;776.17;;;;;;;;;;5051253;28;20418;-62
2022/04/18 11:25:52;;;;;;;845.97;782.57;;;;;;;;;;5051360;28;20505;-62
2022/04/18 11:28:18;;;;;;;846.10;782.60;;;;;;;;;;5051212;28;20421;-62
2022/04/18 11:30:44;;;;;;;855.10;791.40;;;;;;;;;;5050987;28;20410;-63
2022/04/18 11:33:10;;;;;;;844.83;781.53;;;;;;;;;;5051180;28;20450;-63
2022/04/18 11:35:36;;;;;;;829.70;766.67;;;;;;;;;;5051219;28;20407;-63
2022/04/18 11:38:09;;;;;;;839.80;776.50;;;;;;;;;;5051262;28;20410;-63
2022/04/18 11:40:39;;;;;;;844.90;781.70;;;;;;;;;;5050966;28;20410;-62
2022/04/18 11:43:11;;;;;;;847.63;784.07;;;;;;;;;;5051118;28;20492;-63
2022/04/18 11:45:37;;;;;;;850.77;787.27;;;;;;;;;;5051243;28;20420;-63
2022/04/18 11:48:04;;;;;;;845.07;781.77;;;;;;;;;;5051090;28;20402;-63
2022/04/18 11:50:32;;;;;;;839.30;776.20;;;;;;;;;;5050693;28;20484;-63
2022/04/18 11:53:06;;;;;;;826.43;763.50;;;;;;;;;;5051114;28;20468;-63
2022/04/18 11:55:32;;;;;;;791.67;729.47;;;;;;;;;;5050975;28;20851;-63
2022/04/18 11:57:58;;;;;;;760.57;698.93;;;;;;;;;;5051018;28;20413;-63
2022/04/18 12:08:46;;;;;;;689.17;629.10;;;;;;;;;;5050895;28;20798;-62
2022/04/18 12:11:12;;;;;;;632.93;574.03;;;;;;;;;;5050696;28;20414;-62
2022/04/18 12:13:45;;;;;;;618.77;560.27;;;;;;;;;;5050843;28;20465;-62
2022/04/18 12:16:12;;;;;;;614.97;556.23;;;;;;;;;;5053340;28;20805;-62
2022/04/18 12:21:08;;;;;;;596.60;538.13;;;;;;;;;;5073598;22;20240;-64
2022/04/18 12:23:33;;;;;;;563.60;505.70;;;;;;;;;;5054642;28;20485;-64
2022/04/18 12:26:01;;;;;;;529.70;472.43;;;;;;;;;;5054616;28;20437;-64
2022/04/18 12:28:28;;;;;;;541.37;484.17;;;;;;;;;;5054593;28;20905;-64
2022/04/18 12:30:54;;;;;;;551.80;494.50;;;;;;;;;;5054202;28;20421;-64
2022/04/18 12:33:22;;;;;;;527.80;470.90;;;;;;;;;;5054465;28;20512;-64
2022/04/18 12:35:51;;;;;;;520.87;464.00;;;;;;;;;;5054697;28;20934;-63
2022/04/18 12:38:17;;;;;;;522.33;465.50;;;;;;;;;;5054489;28;20768;-64
2022/04/18 12:40:44;;;;;;;519.47;462.50;;;;;;;;;;5054169;28;20429;-63
2022/04/18 12:43:15;;;;;;;511.15;447.13;;;;;;;;;;5054549;28;20540;-63
2022/04/18 12:45:50;;;;;;;538.53;481.23;;;;;;;;;;5054496;28;20249;-64
2022/04/18 12:48:21;;;;;;;526.07;469.30;;;;;;;;;;5054444;28;20461;-64
2022/04/18 12:50:48;;;;;;;516.17;459.10;;;;;;;;;;5054109;28;20430;-64
2022/04/18 12:53:14;;;;;;;508.40;434.58;;;;;;;;;;5054031;28;20196;-64
2022/04/18 12:55:40;;;;;;;527.57;470.50;;;;;;;;;;5054080;28;20640;-64
2022/04/18 12:58:19;;;;;;;524.87;467.77;;;;;;;;;;5054142;28;20894;-64
2022/04/18 13:00:50;;;;;;;511.08;449.50;;;;;;;;;;5053784;28;20552;-64
2022/04/18 13:03:17;;;;;;;514.55;457.90;;;;;;;;;;5054020;28;20203;-63
2022/04/18 13:05:43;;;;;;;500.58;405.67;;;;;;;;;;5053973;28;20172;-64
2022/04/18 13:08:09;;;;;;;510.07;442.67;;;;;;;;;;5054042;28;20179;-64
2022/04/18 13:10:36;;;;;;;508.20;443.40;;;;;;;;;;5053561;28;20552;-65
2022/04/18 13:13:02;;;;;;;507.15;439.75;;;;;;;;;;5053693;28;20192;-64
2022/04/18 13:15:28;;;;;;;505.07;425.87;;;;;;;;;;5053648;28;20225;-64
2022/04/18 13:18:08;;;;;;;503.90;413.63;;;;;;;;;;5053772;28;20429;-64
2022/04/18 13:20:34;;;;;;;505.13;422.35;;;;;;;;;;5053298;28;20442;-64
2022/04/18 13:23:01;;;;;;;502.27;415.83;;;;;;;;;;5053666;28;20258;-64
2022/04/18 13:25:27;;;;;;;497.63;387.85;;;;;;;;;;5053605;28;20264;-64
2022/04/18 13:27:54;;;;;;;507.50;435.80;;;;;;;;;;5053131;28;20255;-64
2022/04/18 13:30:21;;;;;;;506.92;431.55;;;;;;;;;;5053155;28;20262;-64
2022/04/18 13:32:47;;;;;;;502.95;421.80;;;;;;;;;;5053324;28;20243;-64
2022/04/18 13:35:13;;;;;;;499.08;399.60;;;;;;;;;;5053485;28;20179;-64
2022/04/18 13:37:39;;;;;;;504.00;411.33;;;;;;;;;;5053340;28;20183;-64
2022/04/18 13:40:06;;;;;;;502.97;409.13;;;;;;;;;;5053149;28;20196;-64
2022/04/18 13:42:33;;;;;;;503.25;412.15;;;;;;;;;;5053340;28;20494;-64
2022/04/18 13:44:59;;;;;;;500.95;402.15;;;;;;;;;;5053327;28;20567;-64
2022/04/18 13:47:25;;;;;;;501.08;402.55;;;;;;;;;;5053295;28;20191;-64
2022/04/18 13:49:51;;;;;;;501.10;393.87;;;;;;;;;;5052960;28;20195;-64
2022/04/18 13:52:17;;;;;;;503.00;405.03;;;;;;;;;;5052977;28;20482;-64
2022/04/18 13:54:43;;;;;;;501.27;402.63;;;;;;;;;;5052753;28;20439;-64
2022/04/18 13:57:09;;;;;;;500.02;388.95;;;;;;;;;;5053057;28;20413;-64
2022/04/18 13:59:35;;;;;;;502.60;400.57;;;;;;;;;;5053091;28;20286;-64
2022/04/18 14:02:01;;;;;;;501.25;393.35;;;;;;;;;;5052799;28;20773;-64
2022/04/18 14:04:27;;;;;;;498.45;383.35;;;;;;;;;;5052934;28;20176;-64
2022/04/18 14:06:55;;;;;;;492.55;357.23;;;;;;;;;;5052961;28;20654;-64
2022/04/18 14:09:21;;;;;;;496.00;371.48;;;;;;;;;;5052726;28;20227;-64
2022/04/18 14:11:47;;;;;;;499.00;385.27;;;;;;;;;;5052478;28;20203;-64
2022/04/18 14:20:20;;;;;;;500.58;393.52;;;;;;;;;;5046843;28;20471;-64
2022/04/18 14:22:29;;;;;;;495.63;376.45;;;;;;;;;;5052536;28;20882;-63
2022/04/18 14:24:55;;;;;;;495.73;367.10;;;;;;;;;;5052635;28;20179;-63
2022/04/18 14:27:21;;;;;;;493.77;362.65;;;;;;;;;;5034570;28;20183;-63
2022/04/18 14:29:48;;;;;;;492.47;353.33;;;;;;;;;;5052216;28;20237;-63